sensor_id;sensor_type;location;lat;lon;timestamp;pressure;altitude;pressure_sealevel;temperature;humidity
45369;BME280;51342;55.250;37.668;2023-07-13T00:02:03;98730.19;;;12.63;73.47
45369;BME280;51342;55.250;37.668;2023-07-13T00:04:35;98735.31;;;12.61;72.95
45369;BME280;51342;55.250;37.668;2023-07-13T00:07:08;98731.81;;;12.59;73.00
45369;BME280;51342;55.250;37.668;2023-07-13T00:09:42;98726.66;;;12.61;73.40
45369;BME280;51342;55.250;37.668;2023-07-13T00:12:26;98736.00;;;12.56;73.13
45369;BME280;51342;55.250;37.668;2023-07-13T00:17:54;98727.28;;;12.54;73.24
45369;BME280;51342;55.250;37.668;2023-07-13T00:20:26;98728.97;;;12.53;73.17
45369;BME280;51342;55.250;37.668;2023-07-13T00:22:57;98735.75;;;12.48;72.86
45369;BME280;51342;55.250;37.668;2023-07-13T00:25:28;98733.03;;;12.45;72.70
45369;BME280;51342;55.250;37.668;2023-07-13T00:28:00;98723.38;;;12.41;72.89
45369;BME280;51342;55.250;37.668;2023-07-13T00:30:34;98726.81;;;12.40;72.71
45369;BME280;51342;55.250;37.668;2023-07-13T00:33:05;98728.47;;;12.38;73.32
45369;BME280;51342;55.250;37.668;2023-07-13T00:35:36;98725.75;;;12.35;72.93
45369;BME280;51342;55.250;37.668;2023-07-13T00:38:09;98721.53;;;12.37;73.11
45369;BME280;51342;55.250;37.668;2023-07-13T00:40:42;98728.53;;;12.39;73.27
45369;BME280;51342;55.250;37.668;2023-07-13T00:43:18;98724.22;;;12.40;73.21
45369;BME280;51342;55.250;37.668;2023-07-13T00:48:25;98729.44;;;12.41;73.50
45369;BME280;51342;55.250;37.668;2023-07-13T00:50:58;98715.66;;;12.42;73.33
45369;BME280;51342;55.250;37.668;2023-07-13T00:53:32;98721.75;;;12.43;73.45
45369;BME280;51342;55.250;37.668;2023-07-13T00:56:04;98725.13;;;12.42;72.92
45369;BME280;51342;55.250;37.668;2023-07-13T00:58:38;98723.28;;;12.38;73.30
45369;BME280;51342;55.250;37.668;2023-07-13T01:01:09;98728.66;;;12.42;73.17
45369;BME280;51342;55.250;37.668;2023-07-13T01:03:41;98726.97;;;12.44;73.42
45369;BME280;51342;55.250;37.668;2023-07-13T01:06:13;98724.34;;;12.43;73.22
45369;BME280;51342;55.250;37.668;2023-07-13T01:08:44;98724.34;;;12.43;73.28
45369;BME280;51342;55.250;37.668;2023-07-13T01:11:20;98720.06;;;12.45;73.69
45369;BME280;51342;55.250;37.668;2023-07-13T01:13:53;98715.75;;;12.45;73.39
45369;BME280;51342;55.250;37.668;2023-07-13T01:16:27;98714.88;;;12.45;73.47
45369;BME280;51342;55.250;37.668;2023-07-13T01:19:03;98724.34;;;12.43;73.50
45369;BME280;51342;55.250;37.668;2023-07-13T01:21:39;98720.88;;;12.42;73.62
45369;BME280;51342;55.250;37.668;2023-07-13T01:24:13;98721.75;;;12.43;73.79
45369;BME280;51342;55.250;37.668;2023-07-13T01:26:45;98726.13;;;12.45;73.84
45369;BME280;51342;55.250;37.668;2023-07-13T01:29:16;98722.66;;;12.45;74.13
45369;BME280;51342;55.250;37.668;2023-07-13T01:31:47;98722.78;;;12.48;74.12
45369;BME280;51342;55.250;37.668;2023-07-13T01:34:19;98713.22;;;12.47;74.11
45369;BME280;51342;55.250;37.668;2023-07-13T01:36:50;98715.91;;;12.50;73.66
45369;BME280;51342;55.250;37.668;2023-07-13T01:39:24;98709.81;;;12.48;74.35
45369;BME280;51342;55.250;37.668;2023-07-13T01:41:55;98708.09;;;12.49;74.25
45369;BME280;51342;55.250;37.668;2023-07-13T01:44:27;98704.63;;;12.48;73.74
45369;BME280;51342;55.250;37.668;2023-07-13T01:46:58;98708.09;;;12.49;73.66
45369;BME280;51342;55.250;37.668;2023-07-13T01:49:31;98706.38;;;12.49;74.06
45369;BME280;51342;55.250;37.668;2023-07-13T01:52:02;98712.59;;;12.54;73.89
45369;BME280;51342;55.250;37.668;2023-07-13T01:54:38;98706.47;;;12.52;74.01
45369;BME280;51342;55.250;37.668;2023-07-13T01:57:09;98712.66;;;12.56;73.81
45369;BME280;51342;55.250;37.668;2023-07-13T01:59:41;98700.50;;;12.55;73.90
45369;BME280;51342;55.250;37.668;2023-07-13T02:02:12;98699.63;;;12.54;73.98
45369;BME280;51342;55.250;37.668;2023-07-13T02:04:43;98707.47;;;12.56;74.08
45369;BME280;51342;55.250;37.668;2023-07-13T02:07:15;98693.50;;;12.52;73.95
45369;BME280;51342;55.250;37.668;2023-07-13T02:09:46;98698.75;;;12.54;73.79
45369;BME280;51342;55.250;37.668;2023-07-13T02:12:18;98697.84;;;12.53;73.59
45369;BME280;51342;55.250;37.668;2023-07-13T02:14:49;98694.44;;;12.54;73.94
45369;BME280;51342;55.250;37.668;2023-07-13T02:17:21;98692.78;;;12.56;74.06
45369;BME280;51342;55.250;37.668;2023-07-13T02:19:53;98697.97;;;12.56;74.06
45369;BME280;51342;55.250;37.668;2023-07-13T02:22:25;98685.00;;;12.56;74.32
45369;BME280;51342;55.250;37.668;2023-07-13T02:24:56;98699.00;;;12.61;74.35
45369;BME280;51342;55.250;37.668;2023-07-13T02:27:28;98701.75;;;12.66;74.56
45369;BME280;51342;55.250;37.668;2023-07-13T02:29:59;98696.56;;;12.66;74.35
45369;BME280;51342;55.250;37.668;2023-07-13T02:32:31;98694.84;;;12.66;74.29
45369;BME280;51342;55.250;37.668;2023-07-13T02:35:03;98698.41;;;12.70;74.37
45369;BME280;51342;55.250;37.668;2023-07-13T02:37:34;98690.63;;;12.70;74.22
45369;BME280;51342;55.250;37.668;2023-07-13T02:40:07;98681.94;;;12.69;73.81
45369;BME280;51342;55.250;37.668;2023-07-13T02:42:40;98690.69;;;12.71;74.30
45369;BME280;51342;55.250;37.668;2023-07-13T02:45:12;98688.09;;;12.71;74.13
45369;BME280;51342;55.250;37.668;2023-07-13T02:47:45;98680.31;;;12.71;74.36
45369;BME280;51342;55.250;37.668;2023-07-13T02:50:17;98684.66;;;12.72;74.19
45369;BME280;51342;55.250;37.668;2023-07-13T02:52:49;98689.00;;;12.73;74.17
45369;BME280;51342;55.250;37.668;2023-07-13T02:55:20;98690.78;;;12.74;74.65
45369;BME280;51342;55.250;37.668;2023-07-13T02:57:52;98696.06;;;12.78;74.48
45369;BME280;51342;55.250;37.668;2023-07-13T03:00:24;98689.22;;;12.80;73.94
45369;BME280;51342;55.250;37.668;2023-07-13T03:02:56;98687.53;;;12.82;74.83
45369;BME280;51342;55.250;37.668;2023-07-13T03:05:28;98690.25;;;12.85;74.41
45369;BME280;51342;55.250;37.668;2023-07-13T03:08:01;98684.25;;;12.87;74.40
45369;BME280;51342;55.250;37.668;2023-07-13T03:10:37;98682.59;;;12.89;74.62
45369;BME280;51342;55.250;37.668;2023-07-13T03:13:12;98687.00;;;12.92;74.28
45369;BME280;51342;55.250;37.668;2023-07-13T03:15:48;98682.66;;;12.91;73.64
45369;BME280;51342;55.250;37.668;2023-07-13T03:18:20;98689.75;;;12.96;73.86
45369;BME280;51342;55.250;37.668;2023-07-13T03:20:52;98686.44;;;13.00;73.97
45369;BME280;51342;55.250;37.668;2023-07-13T03:23:24;98685.63;;;13.03;74.09
45369;BME280;51342;55.250;37.668;2023-07-13T03:26:09;98688.22;;;13.03;73.41
45369;BME280;51342;55.250;37.668;2023-07-13T03:28:41;98692.66;;;13.06;73.74
45369;BME280;51342;55.250;37.668;2023-07-13T03:31:20;98684.06;;;13.08;73.19
45369;BME280;51342;55.250;37.668;2023-07-13T03:33:52;98685.88;;;13.11;73.73
45369;BME280;51342;55.250;37.668;2023-07-13T03:36:32;98694.66;;;13.16;73.35
45369;BME280;51342;55.250;37.668;2023-07-13T03:39:08;98684.34;;;13.17;73.61
45369;BME280;51342;55.250;37.668;2023-07-13T03:41:50;98692.22;;;13.20;73.58
45369;BME280;51342;55.250;37.668;2023-07-13T03:44:25;98697.53;;;13.22;72.99
45369;BME280;51342;55.250;37.668;2023-07-13T03:47:00;98695.91;;;13.27;73.37
45369;BME280;51342;55.250;37.668;2023-07-13T03:49:34;98688.25;;;13.32;73.31
45369;BME280;51342;55.250;37.668;2023-07-13T03:52:06;98686.66;;;13.35;73.32
45369;BME280;51342;55.250;37.668;2023-07-13T03:54:37;98692.00;;;13.40;73.07
45369;BME280;51342;55.250;37.668;2023-07-13T03:57:10;98694.63;;;13.41;72.93
45369;BME280;51342;55.250;37.668;2023-07-13T03:59:41;98685.22;;;13.45;73.27
45369;BME280;51342;55.250;37.668;2023-07-13T04:02:13;98686.03;;;13.44;72.95
45369;BME280;51342;55.250;37.668;2023-07-13T04:04:45;98695.72;;;13.49;72.67
45369;BME280;51342;55.250;37.668;2023-07-13T04:07:17;98686.16;;;13.48;73.16
45369;BME280;51342;55.250;37.668;2023-07-13T04:09:49;98694.97;;;13.53;72.64
45369;BME280;51342;55.250;37.668;2023-07-13T04:12:20;98697.63;;;13.55;72.79
45369;BME280;51342;55.250;37.668;2023-07-13T04:14:54;98700.34;;;13.60;72.92
45369;BME280;51342;55.250;37.668;2023-07-13T04:21:03;98688.25;;;13.60;72.93
45369;BME280;51342;55.250;37.668;2023-07-13T04:23:36;98688.56;;;13.71;72.71
45369;BME280;51342;55.250;37.668;2023-07-13T04:26:08;98684.41;;;13.77;72.94
45369;BME280;51342;55.250;37.668;2023-07-13T04:28:39;98687.19;;;13.84;72.92
45369;BME280;51342;55.250;37.668;2023-07-13T04:31:11;98686.47;;;13.89;72.70
45369;BME280;51342;55.250;37.668;2023-07-13T04:33:42;98695.38;;;13.97;72.88
45369;BME280;51342;55.250;37.668;2023-07-13T04:36:14;98693.72;;;14.01;72.90
45369;BME280;51342;55.250;37.668;2023-07-13T04:38:45;98700.88;;;14.08;73.44
45369;BME280;51342;55.250;37.668;2023-07-13T04:41:17;98700.19;;;14.15;72.96
45369;BME280;51342;55.250;37.668;2023-07-13T04:43:48;98699.56;;;14.24;72.55
45369;BME280;51342;55.250;37.668;2023-07-13T04:46:20;98691.06;;;14.29;72.49
45369;BME280;51342;55.250;37.668;2023-07-13T04:48:51;98686.00;;;14.36;72.17
45369;BME280;51342;55.250;37.668;2023-07-13T04:51:24;98677.34;;;14.37;72.05
45369;BME280;51342;55.250;37.668;2023-07-13T04:53:56;98693.91;;;14.40;71.84
45369;BME280;51342;55.250;37.668;2023-07-13T04:56:28;98689.69;;;14.45;71.73
45369;BME280;51342;55.250;37.668;2023-07-13T04:58:59;98688.97;;;14.49;71.79
45369;BME280;51342;55.250;37.668;2023-07-13T05:01:31;98688.28;;;14.56;71.77
45369;BME280;51342;55.250;37.668;2023-07-13T05:04:02;98679.72;;;14.61;71.52
45369;BME280;51342;55.250;37.668;2023-07-13T05:06:34;98688.56;;;14.67;71.46
45369;BME280;51342;55.250;37.668;2023-07-13T05:09:05;98686.19;;;14.76;71.50
45369;BME280;51342;55.250;37.668;2023-07-13T05:11:38;98688.91;;;14.81;71.11
45369;BME280;51342;55.250;37.668;2023-07-13T05:14:10;98700.25;;;14.84;70.49
45369;BME280;51342;55.250;37.668;2023-07-13T05:16:42;98689.84;;;14.84;69.97
45369;BME280;51342;55.250;37.668;2023-07-13T05:19:13;98690.72;;;14.85;70.31
45369;BME280;51342;55.250;37.668;2023-07-13T05:21:45;98702.16;;;14.92;70.04
45369;BME280;51342;55.250;37.668;2023-07-13T05:24:16;98684.03;;;14.95;70.78
45369;BME280;51342;55.250;37.668;2023-07-13T05:26:47;98688.59;;;15.03;70.91
45369;BME280;51342;55.250;37.668;2023-07-13T05:29:20;98692.22;;;15.10;70.68
45369;BME280;51342;55.250;37.668;2023-07-13T05:31:52;98681.09;;;15.19;70.40
45369;BME280;51342;55.250;37.668;2023-07-13T05:34:23;98689.25;;;15.32;70.23
45369;BME280;51342;55.250;37.668;2023-07-13T05:36:55;98679.00;;;15.42;70.28
45369;BME280;51342;55.250;37.668;2023-07-13T05:39:26;98680.09;;;15.53;70.31
45369;BME280;51342;55.250;37.668;2023-07-13T05:41:58;98683.00;;;15.65;70.10
45369;BME280;51342;55.250;37.668;2023-07-13T05:44:30;98676.16;;;15.70;69.81
45369;BME280;51342;55.250;37.668;2023-07-13T05:47:01;98681.34;;;15.69;69.47
45369;BME280;51342;55.250;37.668;2023-07-13T05:49:33;98676.13;;;15.69;69.23
45369;BME280;51342;55.250;37.668;2023-07-13T05:52:04;98676.09;;;15.67;69.13
45369;BME280;51342;55.250;37.668;2023-07-13T05:54:36;98675.28;;;15.71;69.23
45369;BME280;51342;55.250;37.668;2023-07-13T05:57:07;98676.28;;;15.76;69.11
45369;BME280;51342;55.250;37.668;2023-07-13T05:59:39;98679.97;;;15.86;69.37
45369;BME280;51342;55.250;37.668;2023-07-13T06:02:10;98680.16;;;15.97;69.08
45369;BME280;51342;55.250;37.668;2023-07-13T06:04:42;98673.41;;;16.06;69.17
45369;BME280;51342;55.250;37.668;2023-07-13T06:07:14;98678.00;;;16.20;69.21
45369;BME280;51342;55.250;37.668;2023-07-13T06:09:45;98670.28;;;16.27;68.53
45369;BME280;51342;55.250;37.668;2023-07-13T06:12:17;98667.78;;;16.33;68.35
45369;BME280;51342;55.250;37.668;2023-07-13T06:14:48;98663.63;;;16.43;67.96
45369;BME280;51342;55.250;37.668;2023-07-13T06:21:19;98663.13;;;16.64;67.61
45369;BME280;51342;55.250;37.668;2023-07-13T06:23:51;98668.50;;;16.73;67.62
45369;BME280;51342;55.250;37.668;2023-07-13T06:26:23;98662.44;;;16.74;67.36
45369;BME280;51342;55.250;37.668;2023-07-13T06:28:54;98668.56;;;16.75;66.96
45369;BME280;51342;55.250;37.668;2023-07-13T06:31:26;98668.50;;;16.73;66.29
45369;BME280;51342;55.250;37.668;2023-07-13T06:33:57;98669.38;;;16.72;66.22
45369;BME280;51342;55.250;37.668;2023-07-13T06:36:28;98671.09;;;16.72;66.55
45369;BME280;51342;55.250;37.668;2023-07-13T06:39:00;98661.59;;;16.75;66.85
45369;BME280;51342;55.250;37.668;2023-07-13T06:41:32;98666.94;;;16.84;66.62
45369;BME280;51342;55.250;37.668;2023-07-13T06:44:04;98661.94;;;16.97;66.46
45369;BME280;51342;55.250;37.668;2023-07-13T06:46:36;98662.06;;;17.07;66.03
45369;BME280;51342;55.250;37.668;2023-07-13T06:49:09;98666.66;;;17.22;66.10
45369;BME280;51342;55.250;37.668;2023-07-13T06:51:43;98664.25;;;17.36;66.20
45369;BME280;51342;55.250;37.668;2023-07-13T06:54:15;98658.25;;;17.46;66.12
45369;BME280;51342;55.250;37.668;2023-07-13T06:56:46;98654.03;;;17.56;65.29
45369;BME280;51342;55.250;37.668;2023-07-13T06:59:19;98653.28;;;17.66;64.71
45369;BME280;51342;55.250;37.668;2023-07-13T07:01:50;98652.53;;;17.73;64.73
45369;BME280;51342;55.250;37.668;2023-07-13T07:04:21;98653.41;;;17.75;64.53
45369;BME280;51342;55.250;37.668;2023-07-13T07:06:53;98661.38;;;17.81;64.32
45369;BME280;51342;55.250;37.668;2023-07-13T07:09:25;98663.06;;;17.81;64.04
45369;BME280;51342;55.250;37.668;2023-07-13T07:11:57;98664.00;;;17.83;63.63
45369;BME280;51342;55.250;37.668;2023-07-13T07:14:29;98663.16;;;17.87;63.67
45369;BME280;51342;55.250;37.668;2023-07-13T07:17:01;98662.34;;;17.92;63.26
45369;BME280;51342;55.250;37.668;2023-07-13T07:19:32;98659.78;;;17.95;63.09
45369;BME280;51342;55.250;37.668;2023-07-13T07:22:05;98661.69;;;18.10;63.76
45369;BME280;51342;55.250;37.668;2023-07-13T07:24:37;98660.06;;;18.23;62.97
45369;BME280;51342;55.250;37.668;2023-07-13T07:27:09;98652.28;;;18.27;63.45
45369;BME280;51342;55.250;37.668;2023-07-13T07:29:41;98667.22;;;18.39;63.45
45369;BME280;51342;55.250;37.668;2023-07-13T07:32:13;98669.03;;;18.48;63.05
45369;BME280;51342;55.250;37.668;2023-07-13T07:34:45;98664.66;;;18.47;62.38
45369;BME280;51342;55.250;37.668;2023-07-13T07:37:16;98671.69;;;18.51;62.26
45369;BME280;51342;55.250;37.668;2023-07-13T07:39:48;98670.81;;;18.53;61.84
45369;BME280;51342;55.250;37.668;2023-07-13T07:42:19;98672.56;;;18.53;61.67
45369;BME280;51342;55.250;37.668;2023-07-13T07:44:51;98669.94;;;18.53;61.67
45369;BME280;51342;55.250;37.668;2023-07-13T07:47:23;98667.34;;;18.54;62.69
45369;BME280;51342;55.250;37.668;2023-07-13T07:49:55;98663.00;;;18.60;62.48
45369;BME280;51342;55.250;37.668;2023-07-13T07:52:27;98670.09;;;18.67;61.91
45369;BME280;51342;55.250;37.668;2023-07-13T07:54:58;98668.44;;;18.76;62.54
45369;BME280;51342;55.250;37.668;2023-07-13T07:57:30;98674.69;;;18.92;62.32
45369;BME280;51342;55.250;37.668;2023-07-13T08:00:02;98663.41;;;19.01;61.57
45369;BME280;51342;55.250;37.668;2023-07-13T08:02:45;98656.44;;;19.08;61.54
45369;BME280;51342;55.250;37.668;2023-07-13T08:05:20;98645.97;;;19.11;61.13
45369;BME280;51342;55.250;37.668;2023-07-13T08:07:52;98660.06;;;19.25;60.82
45369;BME280;51342;55.250;37.668;2023-07-13T08:10:23;98665.41;;;19.40;61.06
45369;BME280;51342;55.250;37.668;2023-07-13T08:12:55;98661.94;;;19.53;60.94
45369;BME280;51342;55.250;37.668;2023-07-13T08:15:27;98662.91;;;19.65;60.14
45369;BME280;51342;55.250;37.668;2023-07-13T08:21:58;98669.94;;;19.70;59.49
45369;BME280;51342;55.250;37.668;2023-07-13T08:24:30;98669.94;;;19.72;59.12
45369;BME280;51342;55.250;37.668;2023-07-13T08:27:01;98667.31;;;19.70;58.92
45369;BME280;51342;55.250;37.668;2023-07-13T08:29:33;98668.19;;;19.71;59.04
45369;BME280;51342;55.250;37.668;2023-07-13T08:32:06;98669.06;;;19.71;59.17
45369;BME280;51342;55.250;37.668;2023-07-13T08:34:40;98673.44;;;19.71;59.21
45369;BME280;51342;55.250;37.668;2023-07-13T08:37:11;98667.31;;;19.69;58.03
45369;BME280;51342;55.250;37.668;2023-07-13T08:39:43;98669.94;;;19.69;57.81
45369;BME280;51342;55.250;37.668;2023-07-13T08:45:06;98656.75;;;19.61;57.91
45369;BME280;51342;55.250;37.668;2023-07-13T08:47:45;98664.63;;;19.59;57.75
45369;BME280;51342;55.250;37.668;2023-07-13T08:50:21;98659.38;;;19.59;58.03
45369;BME280;51342;55.250;37.668;2023-07-13T08:52:55;98668.13;;;19.62;57.13
45369;BME280;51342;55.250;37.668;2023-07-13T08:55:31;98661.16;;;19.65;57.31
45369;BME280;51342;55.250;37.668;2023-07-13T08:58:13;98661.16;;;19.68;57.74
45369;BME280;51342;55.250;37.668;2023-07-13T09:03:42;98659.47;;;19.78;56.47
45369;BME280;51342;55.250;37.668;2023-07-13T09:06:20;98655.09;;;19.78;56.27
45369;BME280;51342;55.250;37.668;2023-07-13T09:09:15;98662.94;;;19.74;56.45
45369;BME280;51342;55.250;37.668;2023-07-13T09:14:48;98657.66;;;19.66;57.14
45369;BME280;51342;55.250;37.668;2023-07-13T09:17:35;98640.19;;;19.70;57.73
45369;BME280;51342;55.250;37.668;2023-07-13T09:22:44;98660.38;;;19.91;57.85
45369;BME280;51342;55.250;37.668;2023-07-13T09:25:30;98651.66;;;19.99;57.97
45369;BME280;51342;55.250;37.668;2023-07-13T09:28:24;98651.63;;;19.96;57.23
45369;BME280;51342;55.250;37.668;2023-07-13T09:31:09;98664.78;;;19.99;56.96
45369;BME280;51342;55.250;37.668;2023-07-13T09:33:43;98670.03;;;19.95;56.28
45369;BME280;51342;55.250;37.668;2023-07-13T09:36:18;98677.00;;;19.88;56.19
45369;BME280;51342;55.250;37.668;2023-07-13T09:39:19;98668.22;;;19.77;55.86
45369;BME280;51342;55.250;37.668;2023-07-13T09:42:07;98673.47;;;19.80;56.40
45369;BME280;51342;55.250;37.668;2023-07-13T09:44:58;98676.94;;;19.79;56.43
45369;BME280;51342;55.250;37.668;2023-07-13T09:47:32;98669.13;;;19.87;56.00
45369;BME280;51342;55.250;37.668;2023-07-13T09:50:10;98662.06;;;19.79;55.97
45369;BME280;51342;55.250;37.668;2023-07-13T09:52:48;98683.09;;;19.81;56.41
45369;BME280;51342;55.250;37.668;2023-07-13T09:55:32;98687.47;;;19.76;56.66
45369;BME280;51342;55.250;37.668;2023-07-13T09:58:10;98673.44;;;19.74;56.73
45369;BME280;51342;55.250;37.668;2023-07-13T10:00:44;98668.19;;;19.71;56.15
45369;BME280;51342;55.250;37.668;2023-07-13T10:03:33;98680.38;;;19.59;55.94
45369;BME280;51342;55.250;37.668;2023-07-13T10:06:17;98681.16;;;19.49;56.67
45369;BME280;51342;55.250;37.668;2023-07-13T10:08:52;98689.88;;;19.41;56.45
45369;BME280;51342;55.250;37.668;2023-07-13T10:11:29;98697.66;;;19.30;56.10
45369;BME280;51342;55.250;37.668;2023-07-13T10:14:11;98686.25;;;19.20;56.95
45369;BME280;51342;55.250;37.668;2023-07-13T10:16:45;98682.75;;;19.20;57.33
45369;BME280;51342;55.250;37.668;2023-07-13T10:22:26;98670.44;;;19.08;56.59
45369;BME280;51342;55.250;37.668;2023-07-13T10:24:59;98687.00;;;19.02;57.26
45369;BME280;51342;55.250;37.668;2023-07-13T10:27:35;98671.22;;;18.96;56.87
45369;BME280;51342;55.250;37.668;2023-07-13T10:32:49;98690.41;;;18.89;56.70
45369;BME280;51342;55.250;37.668;2023-07-13T10:35:22;98684.25;;;18.87;57.06
45369;BME280;51342;55.250;37.668;2023-07-13T10:38:02;98682.47;;;18.83;57.64
45369;BME280;51342;55.250;37.668;2023-07-13T10:40:40;98680.75;;;18.84;57.62
45369;BME280;51342;55.250;37.668;2023-07-13T10:43:28;98685.06;;;18.80;58.29
45369;BME280;51342;55.250;37.668;2023-07-13T10:46:04;98677.22;;;18.82;57.78
45369;BME280;51342;55.250;37.668;2023-07-13T10:48:40;98685.94;;;18.79;57.55
45369;BME280;51342;55.250;37.668;2023-07-13T10:51:16;98692.06;;;18.78;56.93
45369;BME280;51342;55.250;37.668;2023-07-13T10:54:51;98694.56;;;18.69;58.08
45369;BME280;51342;55.250;37.668;2023-07-13T10:57:16;98697.13;;;18.64;58.62
45369;BME280;51342;55.250;37.668;2023-07-13T11:00:13;98698.88;;;18.62;58.58
45369;BME280;51342;55.250;37.668;2023-07-13T11:03:10;98703.19;;;18.57;58.93
45369;BME280;51342;55.250;37.668;2023-07-13T11:05:51;98689.22;;;18.58;58.92
45369;BME280;51342;55.250;37.668;2023-07-13T11:08:38;98707.53;;;18.57;59.21
45369;BME280;51342;55.250;37.668;2023-07-13T11:14:01;98709.13;;;18.42;58.80
45369;BME280;51342;55.250;37.668;2023-07-13T11:16:44;98703.88;;;18.41;59.51
45369;BME280;51342;55.250;37.668;2023-07-13T11:24:59;98710.88;;;18.40;59.69
45369;BME280;51342;55.250;37.668;2023-07-13T11:27:45;98701.22;;;18.36;59.47
45369;BME280;51342;55.250;37.668;2023-07-13T11:36:16;98699.34;;;18.26;59.43
45369;BME280;51342;55.250;37.668;2023-07-13T11:38:57;98686.31;;;18.29;59.99
45369;BME280;51342;55.250;37.668;2023-07-13T11:41:53;98688.88;;;18.23;60.78
45369;BME280;51342;55.250;37.668;2023-07-13T11:44:29;98703.69;;;18.22;61.16
45369;BME280;51342;55.250;37.668;2023-07-13T11:47:14;98705.34;;;18.13;60.99
45369;BME280;51342;55.250;37.668;2023-07-13T11:49:53;98702.69;;;18.10;61.25
45369;BME280;51342;55.250;37.668;2023-07-13T11:52:35;98703.53;;;18.09;62.56
45369;BME280;51342;55.250;37.668;2023-07-13T11:55:16;98697.41;;;18.05;62.39
45369;BME280;51342;55.250;37.668;2023-07-13T11:57:59;98703.44;;;18.01;62.74
45369;BME280;51342;55.250;37.668;2023-07-13T12:00:32;98707.00;;;18.05;63.62
45369;BME280;51342;55.250;37.668;2023-07-13T12:03:11;98710.38;;;17.96;63.13
45369;BME280;51342;55.250;37.668;2023-07-13T12:08:38;98708.56;;;17.90;63.68
45369;BME280;51342;55.250;37.668;2023-07-13T12:11:17;98722.53;;;17.92;63.35
45369;BME280;51342;55.250;37.668;2023-07-13T12:13:49;98714.72;;;17.94;63.66
45369;BME280;51342;55.250;37.668;2023-07-13T12:19:00;98716.47;;;17.93;63.19
45369;BME280;51342;55.250;37.668;2023-07-13T12:24:44;98720.72;;;17.87;63.72
45369;BME280;51342;55.250;37.668;2023-07-13T12:27:26;98703.25;;;17.84;63.72
45369;BME280;51342;55.250;37.668;2023-07-13T12:30:00;98696.31;;;17.88;63.77
45369;BME280;51342;55.250;37.668;2023-07-13T12:32:32;98695.47;;;17.90;64.20
45369;BME280;51342;55.250;37.668;2023-07-13T12:35:21;98693.59;;;17.80;64.31
45369;BME280;51342;55.250;37.668;2023-07-13T12:37:53;98698.88;;;17.83;64.45
45369;BME280;51342;55.250;37.668;2023-07-13T12:40:29;98700.63;;;17.81;64.00
45369;BME280;51342;55.250;37.668;2023-07-13T12:43:04;98686.63;;;17.79;64.70
45369;BME280;51342;55.250;37.668;2023-07-13T12:45:37;98690.91;;;17.74;65.15
45369;BME280;51342;55.250;37.668;2023-07-13T12:48:16;98688.28;;;17.74;65.53
45369;BME280;51342;55.250;37.668;2023-07-13T12:50:49;98695.25;;;17.73;66.03
45369;BME280;51342;55.250;37.668;2023-07-13T12:53:29;98698.63;;;17.65;66.56
45369;BME280;51342;55.250;37.668;2023-07-13T12:56:04;98693.31;;;17.59;67.12
45369;BME280;51342;55.250;37.668;2023-07-13T12:58:41;98704.53;;;17.52;66.93
45369;BME280;51342;55.250;37.668;2023-07-13T13:01:14;98693.13;;;17.46;67.57
45369;BME280;51342;55.250;37.668;2023-07-13T13:03:50;98689.53;;;17.38;67.89
45369;BME280;51342;55.250;37.668;2023-07-13T13:06:28;98685.97;;;17.33;67.65
45369;BME280;51342;55.250;37.668;2023-07-13T13:09:01;98699.06;;;17.33;68.71
45369;BME280;51342;55.250;37.668;2023-07-13T13:11:32;98685.09;;;17.31;69.34
45369;BME280;51342;55.250;37.668;2023-07-13T13:14:03;98688.56;;;17.30;69.67
45369;BME280;51342;55.250;37.668;2023-07-13T13:16:43;98687.63;;;17.27;69.38
45369;BME280;51342;55.250;37.668;2023-07-13T13:19:18;98698.88;;;17.22;69.46
45369;BME280;51342;55.250;37.668;2023-07-13T13:21:50;98708.47;;;17.22;70.11
45369;BME280;51342;55.250;37.668;2023-07-13T13:24:26;98704.03;;;17.18;70.80
45369;BME280;51342;55.250;37.668;2023-07-13T13:26:58;98711.00;;;17.17;70.98
45369;BME280;51342;55.250;37.668;2023-07-13T13:29:31;98714.47;;;17.15;70.97
45369;BME280;51342;55.250;37.668;2023-07-13T13:32:04;98711.00;;;17.16;71.03
45369;BME280;51342;55.250;37.668;2023-07-13T13:34:37;98710.13;;;17.17;72.18
45369;BME280;51342;55.250;37.668;2023-07-13T13:37:28;98711.78;;;17.12;72.17
45369;BME280;51342;55.250;37.668;2023-07-13T13:40:00;98712.72;;;17.14;72.27
45369;BME280;51342;55.250;37.668;2023-07-13T13:42:31;98719.69;;;17.13;72.19
45369;BME280;51342;55.250;37.668;2023-07-13T13:45:03;98716.13;;;17.10;71.63
45369;BME280;51342;55.250;37.668;2023-07-13T13:47:35;98716.94;;;17.07;71.33
45369;BME280;51342;55.250;37.668;2023-07-13T13:52:46;98715.88;;;16.93;71.08
45369;BME280;51342;55.250;37.668;2023-07-13T13:55:19;98719.25;;;16.86;70.61
45369;BME280;51342;55.250;37.668;2023-07-13T13:57:51;98726.09;;;16.79;70.51
45369;BME280;51342;55.250;37.668;2023-07-13T14:00:22;98736.34;;;16.70;70.32
45369;BME280;51342;55.250;37.668;2023-07-13T14:02:55;98732.75;;;16.65;70.85
45369;BME280;51342;55.250;37.668;2023-07-13T14:05:28;98732.66;;;16.59;70.93
45369;BME280;51342;55.250;37.668;2023-07-13T14:08:01;98729.09;;;16.54;71.11
45369;BME280;51342;55.250;37.668;2023-07-13T14:10:32;98724.69;;;16.51;71.83
45369;BME280;51342;55.250;37.668;2023-07-13T14:13:04;98727.34;;;16.53;71.96
45369;BME280;51342;55.250;37.668;2023-07-13T14:15:37;98722.13;;;16.53;72.24
45369;BME280;51342;55.250;37.668;2023-07-13T14:18:09;98729.06;;;16.52;72.26
45369;BME280;51342;55.250;37.668;2023-07-13T14:20:40;98711.66;;;16.51;72.02
45369;BME280;51342;55.250;37.668;2023-07-13T14:23:28;98716.72;;;16.43;71.59
45369;BME280;51342;55.250;37.668;2023-07-13T14:26:00;98716.69;;;16.42;71.83
45369;BME280;51342;55.250;37.668;2023-07-13T14:28:32;98719.22;;;16.37;72.16